Time;durP1;ratioP1;P1;durP2;ratioP2;P2;SDS_P1;SDS_P2;PMS_P1;PMS_P2;Temp;Humidity;BMP_temperature;BMP_pressure;BME280_temperature;BME280_humidity;BME280_pressure;Samples;Min_cycle;Max_cycle;Signal;HPM_P1;HPM_P2
2022/11/07 00:02:26;;;;;;;15.68;5.60;;;;;;;;;;5143904;27;20026;-75
2022/11/07 00:05:12;;;;;;;12.70;5.88;;;;;;;;;;5159548;27;20014;-75
2022/11/07 00:07:58;;;;;;;9.00;5.10;;;;;;;;;;5146223;27;20037;-74
2022/11/07 00:10:43;;;;;;;12.10;5.55;;;;;;;;;;5159586;27;20380;-74
2022/11/07 00:13:29;;;;;;;11.10;5.88;;;;;;;;;;5158969;27;20432;-74
2022/11/07 00:16:15;;;;;;;11.75;5.82;;;;;;;;;;5144695;27;20452;-75
2022/11/07 00:19:01;;;;;;;13.57;5.70;;;;;;;;;;5145239;27;20023;-74
2022/11/07 00:21:47;;;;;;;12.90;5.88;;;;;;;;;;5144774;27;20015;-75
2022/11/07 00:24:32;;;;;;;18.10;6.60;;;;;;;;;;5158548;27;20109;-74
2022/11/07 00:27:18;;;;;;;15.73;6.40;;;;;;;;;;5158484;27;20019;-74
2022/11/07 00:30:04;;;;;;;16.05;5.88;;;;;;;;;;5158812;27;20014;-74
2022/11/07 00:32:50;;;;;;;15.82;6.95;;;;;;;;;;5144108;27;20019;-74
2022/11/07 00:35:39;;;;;;;14.57;6.00;;;;;;;;;;5144689;27;20011;-74
2022/11/07 00:38:25;;;;;;;16.70;6.28;;;;;;;;;;5157318;27;20075;-75
2022/11/07 00:41:11;;;;;;;12.60;6.90;;;;;;;;;;5143579;27;20019;-75
2022/11/07 00:43:57;;;;;;;14.77;6.68;;;;;;;;;;5144140;27;20011;-75
2022/11/07 00:46:42;;;;;;;12.30;6.55;;;;;;;;;;5159104;27;20471;-75
2022/11/07 00:49:28;;;;;;;12.38;5.78;;;;;;;;;;5158177;27;20159;-74
2022/11/07 00:52:13;;;;;;;21.45;6.25;;;;;;;;;;5158331;27;20018;-75
2022/11/07 00:54:59;;;;;;;13.98;6.53;;;;;;;;;;5142320;27;20098;-73
2022/11/07 00:57:45;;;;;;;15.00;6.43;;;;;;;;;;5143609;27;20038;-77
2022/11/07 01:00:30;;;;;;;14.38;6.63;;;;;;;;;;5158367;27;20054;-75
2022/11/07 01:06:20;;;;;;;16.65;6.90;;;;;;;;;;5158192;27;20418;-74
2022/11/07 01:09:07;;;;;;;17.10;7.50;;;;;;;;;;5159110;27;20025;-75
2022/11/07 01:11:53;;;;;;;15.27;6.35;;;;;;;;;;5157962;27;20019;-75
2022/11/07 01:14:38;;;;;;;16.88;7.45;;;;;;;;;;5158002;27;20044;-76
2022/11/07 01:17:24;;;;;;;16.17;7.47;;;;;;;;;;5157869;27;20053;-74
2022/11/07 01:20:10;;;;;;;21.60;11.05;;;;;;;;;;5157601;27;20022;-74
2022/11/07 01:22:55;;;;;;;28.60;16.35;;;;;;;;;;5144402;27;20037;-75
2022/11/07 01:25:41;;;;;;;25.80;15.80;;;;;;;;;;5157924;27;20018;-76
2022/11/07 01:28:27;;;;;;;28.33;17.33;;;;;;;;;;5158071;27;20101;-74
2022/11/07 01:31:13;;;;;;;28.17;15.98;;;;;;;;;;5157954;27;20023;-75
2022/11/07 01:33:59;;;;;;;26.88;14.20;;;;;;;;;;5157707;27;20075;-75
2022/11/07 01:36:45;;;;;;;24.20;14.13;;;;;;;;;;5157393;27;20023;-74
2022/11/07 01:39:31;;;;;;;21.20;11.82;;;;;;;;;;5157159;27;20460;-74
2022/11/07 01:42:16;;;;;;;18.55;10.05;;;;;;;;;;5156861;27;20082;-75
2022/11/07 01:45:02;;;;;;;17.38;8.65;;;;;;;;;;5157721;27;20346;-75
2022/11/07 01:47:48;;;;;;;17.58;7.78;;;;;;;;;;5157176;27;20019;-74
2022/11/07 01:50:34;;;;;;;17.98;7.68;;;;;;;;;;5157699;27;20034;-74
2022/11/07 01:53:20;;;;;;;12.45;7.25;;;;;;;;;;5141438;27;20087;-75
2022/11/07 01:56:08;;;;;;;15.32;7.25;;;;;;;;;;5156825;27;20019;-74
2022/11/07 01:58:54;;;;;;;19.52;7.18;;;;;;;;;;5157401;27;20436;-74
2022/11/07 02:01:40;;;;;;;15.15;6.97;;;;;;;;;;5156181;27;20037;-74
2022/11/07 02:04:28;;;;;;;16.77;7.95;;;;;;;;;;5157150;27;20103;-75
2022/11/07 02:07:13;;;;;;;15.40;8.35;;;;;;;;;;5156346;27;20033;-74
2022/11/07 02:10:00;;;;;;;23.85;9.32;;;;;;;;;;5156799;27;20068;-74
2022/11/07 02:12:46;;;;;;;16.90;9.32;;;;;;;;;;5156349;27;20052;-71
2022/11/07 02:15:32;;;;;;;20.10;9.10;;;;;;;;;;5156222;27;20019;-70
2022/11/07 02:18:18;;;;;;;19.08;9.20;;;;;;;;;;5155335;27;20026;-71
2022/11/07 02:21:26;;;;;;;16.55;8.70;;;;;;;;;;5142183;27;20039;-71
2022/11/07 02:24:15;;;;;;;16.33;7.50;;;;;;;;;;5130686;27;20035;-72
2022/11/07 02:27:21;;;;;;;18.20;8.07;;;;;;;;;;5156889;27;20029;-72
2022/11/07 02:30:08;;;;;;;13.48;6.95;;;;;;;;;;5141879;27;20390;-71
2022/11/07 02:32:54;;;;;;;12.73;7.00;;;;;;;;;;5156125;27;20015;-72
2022/11/07 02:35:41;;;;;;;13.35;6.38;;;;;;;;;;5156232;27;20015;-72
2022/11/07 02:38:35;;;;;;;14.13;6.70;;;;;;;;;;5155872;27;20015;-72
2022/11/07 02:41:21;;;;;;;16.45;7.28;;;;;;;;;;5141716;27;20026;-72
2022/11/07 02:44:09;;;;;;;12.73;6.35;;;;;;;;;;5155643;27;20018;-71
2022/11/07 02:46:55;;;;;;;17.13;6.90;;;;;;;;;;5155672;27;20421;-73
2022/11/07 02:49:41;;;;;;;12.02;6.32;;;;;;;;;;5156748;27;20051;-72
2022/11/07 02:52:26;;;;;;;16.58;6.68;;;;;;;;;;5140641;27;20011;-72
2022/11/07 02:55:12;;;;;;;14.23;6.43;;;;;;;;;;5155484;27;20105;-72
2022/11/07 02:57:58;;;;;;;12.98;6.18;;;;;;;;;;5140706;27;20023;-72
2022/11/07 03:00:43;;;;;;;13.32;5.93;;;;;;;;;;5140807;27;20022;-73
2022/11/07 03:03:29;;;;;;;12.48;6.80;;;;;;;;;;5155076;27;20060;-72
2022/11/07 03:06:16;;;;;;;10.35;6.28;;;;;;;;;;5155312;27;20019;-73
2022/11/07 03:09:02;;;;;;;14.43;6.53;;;;;;;;;;5155572;27;20168;-70
2022/11/07 03:11:47;;;;;;;11.43;6.75;;;;;;;;;;5156585;27;20433;-72
2022/11/07 03:14:33;;;;;;;13.43;6.78;;;;;;;;;;5155564;27;20038;-72
2022/11/07 03:17:18;;;;;;;12.52;7.03;;;;;;;;;;5154949;27;20067;-72
2022/11/07 03:20:04;;;;;;;13.35;6.38;;;;;;;;;;5154943;27;20076;-71
2022/11/07 03:22:50;;;;;;;15.13;6.95;;;;;;;;;;5155217;27;20427;-70
2022/11/07 03:25:36;;;;;;;11.77;6.68;;;;;;;;;;5155127;27;20033;-72
2022/11/07 03:28:21;;;;;;;13.48;6.78;;;;;;;;;;5155565;27;20413;-72
2022/11/07 03:31:07;;;;;;;15.15;7.30;;;;;;;;;;5155151;27;20018;-72
2022/11/07 03:33:52;;;;;;;13.77;7.10;;;;;;;;;;5140204;27;20015;-72
2022/11/07 03:36:38;;;;;;;13.52;7.50;;;;;;;;;;5155101;27;20101;-72
2022/11/07 03:39:24;;;;;;;15.10;6.65;;;;;;;;;;5139974;27;20022;-71
2022/11/07 03:42:09;;;;;;;12.77;6.97;;;;;;;;;;5139468;27;20033;-72
2022/11/07 03:44:55;;;;;;;11.45;6.68;;;;;;;;;;5154878;27;20409;-72
2022/11/07 03:47:41;;;;;;;16.38;8.18;;;;;;;;;;5155210;27;20046;-74
2022/11/07 03:50:27;;;;;;;15.90;7.97;;;;;;;;;;5156159;27;20445;-71
2022/11/07 03:53:12;;;;;;;15.05;7.70;;;;;;;;;;5154988;27;20445;-72
2022/11/07 03:55:58;;;;;;;15.30;7.03;;;;;;;;;;5154805;27;20018;-71
2022/11/07 03:58:43;;;;;;;15.65;7.85;;;;;;;;;;5154671;27;20011;-71
2022/11/07 04:01:29;;;;;;;17.10;7.15;;;;;;;;;;5155022;27;20087;-71
2022/11/07 04:04:15;;;;;;;13.65;6.95;;;;;;;;;;5156080;27;20344;-70
2022/11/07 04:07:00;;;;;;;15.40;7.63;;;;;;;;;;5154645;27;20503;-72
2022/11/07 04:09:46;;;;;;;14.23;6.70;;;;;;;;;;5154904;27;20034;-71
2022/11/07 04:18:40;;;;;;;18.30;7.75;;;;;;;;;;5154401;27;20099;-72
2022/11/07 04:21:26;;;;;;;16.88;8.25;;;;;;;;;;5154899;27;20091;-71
2022/11/07 04:24:11;;;;;;;15.00;7.32;;;;;;;;;;5154540;27;20023;-71
2022/11/07 04:30:17;;;;;;;23.67;8.85;;;;;;;;;;5155847;27;20042;-73
2022/11/07 04:33:03;;;;;;;15.30;7.80;;;;;;;;;;5158734;27;20018;-71
2022/11/07 04:35:48;;;;;;;18.40;7.50;;;;;;;;;;5158441;27;20389;-71
2022/11/07 04:38:34;;;;;;;20.58;8.52;;;;;;;;;;5157862;27;20019;-71
2022/11/07 04:41:21;;;;;;;17.42;8.82;;;;;;;;;;5143609;27;20014;-70
2022/11/07 04:44:06;;;;;;;18.85;9.63;;;;;;;;;;5158194;27;20033;-72
2022/11/07 04:46:52;;;;;;;18.95;9.25;;;;;;;;;;5157826;27;20543;-73
2022/11/07 04:49:37;;;;;;;19.08;9.30;;;;;;;;;;5157975;27;20132;-72
2022/11/07 04:52:23;;;;;;;17.83;8.73;;;;;;;;;;5157949;27;20019;-72
2022/11/07 04:55:14;;;;;;;18.92;9.40;;;;;;;;;;5159224;27;20014;-72
2022/11/07 04:58:00;;;;;;;16.23;9.15;;;;;;;;;;5142390;27;20336;-72
2022/11/07 05:00:46;;;;;;;17.67;9.23;;;;;;;;;;5158043;27;20110;-71
2022/11/07 05:03:31;;;;;;;18.73;9.30;;;;;;;;;;5157030;27;20019;-72
2022/11/07 05:06:18;;;;;;;20.63;9.48;;;;;;;;;;5158104;27;20046;-73
2022/11/07 05:09:03;;;;;;;20.27;9.85;;;;;;;;;;5158107;27;20134;-72
2022/11/07 05:11:49;;;;;;;19.25;10.00;;;;;;;;;;5158082;27;20015;-74
2022/11/07 05:14:34;;;;;;;17.70;10.38;;;;;;;;;;5158880;27;20337;-70
2022/11/07 05:17:20;;;;;;;23.38;10.63;;;;;;;;;;5157798;27;20432;-72
2022/11/07 05:20:06;;;;;;;23.33;11.38;;;;;;;;;;5157660;27;20105;-72
2022/11/07 05:25:56;;;;;;;29.33;10.98;;;;;;;;;;5158387;27;20025;-72
2022/11/07 05:28:42;;;;;;;16.33;11.25;;;;;;;;;;5157045;27;20034;-72
2022/11/07 05:31:27;;;;;;;24.02;11.30;;;;;;;;;;5157558;27;20011;-72
2022/11/07 05:34:13;;;;;;;17.38;10.88;;;;;;;;;;5157262;27;20019;-73
2022/11/07 05:36:58;;;;;;;23.80;10.10;;;;;;;;;;5157382;27;20325;-72
2022/11/07 05:39:44;;;;;;;25.55;11.25;;;;;;;;;;5158996;27;20029;-73
2022/11/07 05:42:29;;;;;;;21.85;10.57;;;;;;;;;;5156993;27;20015;-73
2022/11/07 05:45:15;;;;;;;19.45;10.77;;;;;;;;;;5157319;27;20057;-72
2022/11/07 05:48:01;;;;;;;17.63;9.85;;;;;;;;;;5157131;27;20452;-73
2022/11/07 05:50:47;;;;;;;22.63;11.43;;;;;;;;;;5156476;27;20456;-73
2022/11/07 05:53:33;;;;;;;23.42;12.27;;;;;;;;;;5157454;27;20018;-72
2022/11/07 05:56:18;;;;;;;19.70;11.18;;;;;;;;;;5157839;27;20023;-71
2022/11/07 05:59:04;;;;;;;20.80;10.50;;;;;;;;;;5156364;27;20018;-72
2022/11/07 06:01:50;;;;;;;23.58;10.73;;;;;;;;;;5155752;27;20026;-74
2022/11/07 06:04:36;;;;;;;21.05;10.70;;;;;;;;;;5155614;27;20098;-74
2022/11/07 06:07:22;;;;;;;18.88;11.45;;;;;;;;;;5155630;27;20053;-74
2022/11/07 06:10:08;;;;;;;23.15;10.93;;;;;;;;;;5155887;27;20168;-74
2022/11/07 06:13:01;;;;;;;21.02;10.93;;;;;;;;;;5155609;27;20086;-74
2022/11/07 06:15:46;;;;;;;23.33;11.05;;;;;;;;;;5155698;27;20014;-75
2022/11/07 06:18:36;;;;;;;24.70;11.10;;;;;;;;;;5141746;27;20014;-75
2022/11/07 06:21:21;;;;;;;23.08;10.95;;;;;;;;;;5141521;27;20067;-74
2022/11/07 06:24:08;;;;;;;19.10;10.82;;;;;;;;;;5156145;27;20098;-74
2022/11/07 06:26:54;;;;;;;19.90;10.85;;;;;;;;;;5155173;27;20060;-76
2022/11/07 06:29:39;;;;;;;28.25;11.50;;;;;;;;;;5140214;27;20022;-75
2022/11/07 06:32:26;;;;;;;25.15;11.80;;;;;;;;;;5156312;27;20065;-74
2022/11/07 06:35:12;;;;;;;27.23;12.68;;;;;;;;;;5155158;27;20452;-74
2022/11/07 06:38:04;;;;;;;22.50;10.38;;;;;;;;;;5154953;27;20022;-75
2022/11/07 06:40:50;;;;;;;25.13;12.63;;;;;;;;;;5154952;27;20019;-73
2022/11/07 06:43:36;;;;;;;27.77;13.68;;;;;;;;;;5155930;27;20018;-75
2022/11/07 06:46:22;;;;;;;22.90;11.40;;;;;;;;;;5139117;27;20054;-74
2022/11/07 06:49:09;;;;;;;23.30;11.00;;;;;;;;;;5155665;27;20057;-74
2022/11/07 06:51:54;;;;;;;20.55;10.88;;;;;;;;;;5155165;27;20098;-74
2022/11/07 06:54:40;;;;;;;24.02;11.63;;;;;;;;;;5153792;27;20019;-73
2022/11/07 06:57:25;;;;;;;25.02;10.90;;;;;;;;;;5155447;27;20105;-75
2022/11/07 07:00:11;;;;;;;19.33;10.30;;;;;;;;;;5139932;27;20029;-74
2022/11/07 07:02:57;;;;;;;23.30;11.02;;;;;;;;;;5154807;27;20087;-74
2022/11/07 07:05:42;;;;;;;21.30;10.05;;;;;;;;;;5154933;27;20022;-74
2022/11/07 07:08:29;;;;;;;22.27;10.20;;;;;;;;;;5155072;27;20375;-73
2022/11/07 07:11:15;;;;;;;22.58;9.85;;;;;;;;;;5139083;27;20045;-74
2022/11/07 07:14:00;;;;;;;22.25;9.95;;;;;;;;;;5139602;27;20014;-75
2022/11/07 07:16:46;;;;;;;17.52;9.82;;;;;;;;;;5139890;27;20015;-74
2022/11/07 07:19:32;;;;;;;19.08;9.43;;;;;;;;;;5154274;27;20502;-72
2022/11/07 07:22:17;;;;;;;21.63;10.18;;;;;;;;;;5153549;27;20023;-73
2022/11/07 07:25:03;;;;;;;21.75;11.25;;;;;;;;;;5138768;27;20075;-74
2022/11/07 07:27:49;;;;;;;20.08;9.63;;;;;;;;;;5154413;27;20042;-73
2022/11/07 07:30:35;;;;;;;19.55;9.85;;;;;;;;;;5153168;27;20023;-72
2022/11/07 07:33:20;;;;;;;14.60;9.88;;;;;;;;;;5138133;27;20393;-73
2022/11/07 07:36:06;;;;;;;16.38;9.38;;;;;;;;;;5139615;27;20029;-73
2022/11/07 07:38:52;;;;;;;19.58;9.77;;;;;;;;;;5123908;27;20105;-74
2022/11/07 07:41:37;;;;;;;22.13;10.15;;;;;;;;;;5154314;27;20019;-72
2022/11/07 07:44:23;;;;;;;20.88;10.52;;;;;;;;;;5154036;27;20042;-73
2022/11/07 07:47:08;;;;;;;17.13;10.02;;;;;;;;;;5154296;27;20039;-72
2022/11/07 07:49:54;;;;;;;27.17;16.75;;;;;;;;;;5152808;27;20463;-71
2022/11/07 07:52:40;;;;;;;30.67;10.25;;;;;;;;;;5152681;27;20046;-71
2022/11/07 07:55:25;;;;;;;16.25;9.80;;;;;;;;;;5153674;27;20063;-71
2022/11/07 07:58:11;;;;;;;18.08;9.50;;;;;;;;;;5152642;27;20011;-71
2022/11/07 08:00:57;;;;;;;16.73;9.48;;;;;;;;;;5153606;27;20022;-71
2022/11/07 08:03:43;;;;;;;18.20;10.07;;;;;;;;;;5154036;27;20018;-70
2022/11/07 08:06:29;;;;;;;17.52;9.90;;;;;;;;;;5157746;27;20023;-72
2022/11/07 08:09:14;;;;;;;17.83;10.02;;;;;;;;;;5157156;27;20087;-71
2022/11/07 08:12:00;;;;;;;18.80;10.02;;;;;;;;;;5158162;27;20015;-71
2022/11/07 08:14:46;;;;;;;23.10;9.70;;;;;;;;;;5157498;27;20022;-71
2022/11/07 08:17:32;;;;;;;19.90;10.35;;;;;;;;;;5157567;27;20023;-71
2022/11/07 08:20:26;;;;;;;21.10;10.07;;;;;;;;;;5157228;27;20673;-71
2022/11/07 08:23:12;;;;;;;19.52;10.25;;;;;;;;;;5158052;27;20026;-71
2022/11/07 08:25:58;;;;;;;25.75;10.60;;;;;;;;;;5157749;27;20048;-70
2022/11/07 08:28:45;;;;;;;18.33;10.38;;;;;;;;;;5157167;27;20452;-71
2022/11/07 08:31:30;;;;;;;25.33;11.32;;;;;;;;;;5157509;27;20027;-71
2022/11/07 08:34:17;;;;;;;31.35;11.80;;;;;;;;;;5157954;27;20014;-72
2022/11/07 08:37:03;;;;;;;32.33;12.10;;;;;;;;;;5157247;27;20018;-72
2022/11/07 08:39:48;;;;;;;24.20;11.65;;;;;;;;;;5157636;27;20098;-70
2022/11/07 08:42:34;;;;;;;24.25;11.20;;;;;;;;;;5156269;27;20015;-73
2022/11/07 08:45:19;;;;;;;23.02;10.77;;;;;;;;;;5157687;27;20125;-72
2022/11/07 08:48:05;;;;;;;18.35;10.05;;;;;;;;;;5155867;27;20493;-71
2022/11/07 08:50:52;;;;;;;18.65;10.35;;;;;;;;;;5156563;27;20167;-73
2022/11/07 08:53:37;;;;;;;24.60;10.63;;;;;;;;;;5142083;27;20018;-71
2022/11/07 08:56:23;;;;;;;23.92;10.60;;;;;;;;;;5157124;27;20026;-71
2022/11/07 08:59:09;;;;;;;24.98;11.13;;;;;;;;;;5141377;27;20027;-72
2022/11/07 09:01:55;;;;;;;29.40;11.30;;;;;;;;;;5156451;27;20030;-71
2022/11/07 09:04:40;;;;;;;28.40;12.77;;;;;;;;;;5156098;27;20021;-72
2022/11/07 09:07:26;;;;;;;26.00;11.38;;;;;;;;;;5156895;27;20022;-71
2022/11/07 09:10:12;;;;;;;22.83;10.90;;;;;;;;;;5157634;27;20364;-72
2022/11/07 09:12:57;;;;;;;22.75;11.88;;;;;;;;;;5156969;27;20023;-72
2022/11/07 09:15:43;;;;;;;21.17;10.05;;;;;;;;;;5156997;27;20094;-71
2022/11/07 09:18:29;;;;;;;21.55;10.20;;;;;;;;;;5158344;27;20023;-70
2022/11/07 09:21:15;;;;;;;24.67;11.70;;;;;;;;;;5156382;27;20324;-70
2022/11/07 09:24:01;;;;;;;21.15;10.48;;;;;;;;;;5156433;27;20014;-72
2022/11/07 09:26:46;;;;;;;22.20;11.73;;;;;;;;;;5142028;27;20022;-74
2022/11/07 09:29:32;;;;;;;27.42;10.88;;;;;;;;;;5156971;27;20058;-75
2022/11/07 09:32:17;;;;;;;25.08;10.75;;;;;;;;;;5156831;27;20014;-74
2022/11/07 09:35:03;;;;;;;26.58;11.10;;;;;;;;;;5157428;27;20389;-74
2022/11/07 09:37:49;;;;;;;29.88;11.40;;;;;;;;;;5142400;27;20026;-74
2022/11/07 09:40:42;;;;;;;33.33;12.63;;;;;;;;;;5158188;27;20333;-74
2022/11/07 09:43:30;;;;;;;26.55;11.48;;;;;;;;;;5158405;27;20018;-74
2022/11/07 09:46:35;;;;;;;27.77;11.52;;;;;;;;;;5157459;27;20050;-75
2022/11/07 09:49:42;;;;;;;27.92;11.32;;;;;;;;;;5158269;27;20030;-74
2022/11/07 09:52:40;;;;;;;22.50;10.30;;;;;;;;;;5159305;27;20022;-75
2022/11/07 09:55:29;;;;;;;32.95;10.35;;;;;;;;;;5157449;27;20018;-76
2022/11/07 09:58:41;;;;;;;24.77;10.73;;;;;;;;;;5156958;27;20419;-74
2022/11/07 10:01:29;;;;;;;18.42;10.05;;;;;;;;;;5156484;27;20105;-74
2022/11/07 10:04:16;;;;;;;16.77;9.40;;;;;;;;;;5155447;27;20030;-74
2022/11/07 10:07:05;;;;;;;22.33;8.85;;;;;;;;;;5142903;27;20376;-72
2022/11/07 10:10:00;;;;;;;20.77;9.85;;;;;;;;;;5156429;27;20018;-72
2022/11/07 10:12:46;;;;;;;15.68;9.45;;;;;;;;;;5157016;27;20325;-72
2022/11/07 10:15:37;;;;;;;21.58;10.00;;;;;;;;;;5156449;27;20033;-73
2022/11/07 10:18:34;;;;;;;23.15;10.05;;;;;;;;;;5157454;27;20079;-73
2022/11/07 10:21:23;;;;;;;16.63;9.50;;;;;;;;;;5141910;27;20030;-71
2022/11/07 10:24:25;;;;;;;15.05;9.07;;;;;;;;;;5156043;27;20046;-71
2022/11/07 10:27:11;;;;;;;17.13;9.10;;;;;;;;;;5156511;27;20082;-71
2022/11/07 10:29:58;;;;;;;17.33;9.38;;;;;;;;;;5141947;27;20052;-72
2022/11/07 10:32:51;;;;;;;18.52;9.35;;;;;;;;;;5140072;27;20021;-72
2022/11/07 10:35:40;;;;;;;19.05;9.55;;;;;;;;;;5154258;27;20014;-72
2022/11/07 10:38:27;;;;;;;14.63;8.65;;;;;;;;;;5153675;27;20409;-71
2022/11/07 10:41:24;;;;;;;17.25;10.25;;;;;;;;;;5139707;27;20019;-72
2022/11/07 10:44:12;;;;;;;19.35;9.98;;;;;;;;;;5153933;27;20018;-73
2022/11/07 10:46:58;;;;;;;17.23;9.13;;;;;;;;;;5154905;27;20079;-73
2022/11/07 10:49:54;;;;;;;13.88;8.80;;;;;;;;;;5154452;27;20404;-73
2022/11/07 10:52:40;;;;;;;14.30;7.60;;;;;;;;;;5154313;27;20356;-73
2022/11/07 10:55:26;;;;;;;19.83;9.18;;;;;;;;;;5154830;27;20107;-72
2022/11/07 10:58:18;;;;;;;21.35;8.70;;;;;;;;;;5139515;27;20011;-71
2022/11/07 11:01:05;;;;;;;17.48;8.30;;;;;;;;;;5154678;27;20030;-72
2022/11/07 11:03:51;;;;;;;15.30;8.38;;;;;;;;;;5155419;27;20036;-72
2022/11/07 11:06:37;;;;;;;19.73;8.65;;;;;;;;;;5153418;27;20448;-74
2022/11/07 11:09:26;;;;;;;17.75;8.75;;;;;;;;;;5154367;27;20342;-73
2022/11/07 11:12:12;;;;;;;19.73;9.15;;;;;;;;;;5139488;27;20023;-72
2022/11/07 11:15:08;;;;;;;19.65;8.55;;;;;;;;;;5154546;27;20011;-72
2022/11/07 11:17:58;;;;;;;18.92;9.38;;;;;;;;;;5139035;27;20034;-73
2022/11/07 11:20:57;;;;;;;19.33;8.85;;;;;;;;;;5138542;27;20030;-74
2022/11/07 11:23:44;;;;;;;23.23;8.73;;;;;;;;;;5155237;27;20026;-72
2022/11/07 11:26:35;;;;;;;18.33;8.52;;;;;;;;;;5153261;27;20078;-73
2022/11/07 11:29:37;;;;;;;14.07;6.95;;;;;;;;;;5154687;27;20027;-72
2022/11/07 11:32:25;;;;;;;18.25;8.35;;;;;;;;;;5153801;27;20025;-73
2022/11/07 11:35:22;;;;;;;11.93;7.20;;;;;;;;;;5153423;27;20482;-73
2022/11/07 11:38:16;;;;;;;14.10;7.38;;;;;;;;;;5153251;27;20139;-73
2022/11/07 11:41:26;;;;;;;13.63;7.78;;;;;;;;;;5153016;27;20079;-71
2022/11/07 11:44:15;;;;;;;15.55;7.88;;;;;;;;;;5152735;27;20417;-72
2022/11/07 11:47:00;;;;;;;15.30;8.02;;;;;;;;;;5153154;27;20042;-71
2022/11/07 11:49:51;;;;;;;15.48;8.43;;;;;;;;;;5152921;27;20352;-72
2022/11/07 11:52:37;;;;;;;15.90;7.60;;;;;;;;;;5153815;27;20018;-71
2022/11/07 11:55:24;;;;;;;11.68;7.50;;;;;;;;;;5139367;27;20011;-72
2022/11/07 11:58:18;;;;;;;15.18;6.93;;;;;;;;;;5153511;27;20321;-72
2022/11/07 12:01:13;;;;;;;14.65;7.90;;;;;;;;;;5154109;27;20033;-72
2022/11/07 12:04:17;;;;;;;15.07;7.53;;;;;;;;;;5153532;27;20110;-71
2022/11/07 12:07:06;;;;;;;17.10;8.57;;;;;;;;;;5139036;27;20054;-72
2022/11/07 12:10:10;;;;;;;18.20;7.88;;;;;;;;;;5138174;27;20071;-73
2022/11/07 12:13:14;;;;;;;15.10;7.97;;;;;;;;;;5152899;27;20011;-72
2022/11/07 12:15:59;;;;;;;12.55;7.38;;;;;;;;;;5153668;27;20026;-73
2022/11/07 12:18:58;;;;;;;16.75;8.30;;;;;;;;;;5154026;27;20030;-72
2022/11/07 12:21:44;;;;;;;15.95;8.00;;;;;;;;;;5139319;27;20091;-72
2022/11/07 12:24:42;;;;;;;16.08;8.02;;;;;;;;;;5154859;27;20025;-72
2022/11/07 12:27:30;;;;;;;15.05;7.72;;;;;;;;;;5139120;27;20042;-73
2022/11/07 12:30:19;;;;;;;23.83;8.45;;;;;;;;;;5153382;27;20019;-72
2022/11/07 12:33:24;;;;;;;17.35;8.68;;;;;;;;;;5154442;27;20445;-73
2022/11/07 12:36:17;;;;;;;20.73;8.85;;;;;;;;;;5153941;27;20019;-73
2022/11/07 12:39:11;;;;;;;17.63;7.82;;;;;;;;;;5125960;27;20018;-73
2022/11/07 12:42:05;;;;;;;17.30;8.90;;;;;;;;;;5138939;27;20050;-75
2022/11/07 12:45:03;;;;;;;19.52;8.63;;;;;;;;;;5153665;27;20054;-74
2022/11/07 12:48:05;;;;;;;19.50;8.73;;;;;;;;;;5139175;27;20063;-76
2022/11/07 12:50:53;;;;;;;14.10;7.82;;;;;;;;;;5137992;27;20027;-73
2022/11/07 12:53:39;;;;;;;15.75;8.63;;;;;;;;;;5162252;27;20440;-72
2022/11/07 12:56:30;;;;;;;16.02;8.38;;;;;;;;;;5160097;27;20337;-73
2022/11/07 12:59:21;;;;;;;13.75;7.60;;;;;;;;;;5157153;27;20019;-72
2022/11/07 13:02:15;;;;;;;18.55;8.85;;;;;;;;;;5128956;27;20026;-73
2022/11/07 13:05:01;;;;;;;18.00;8.70;;;;;;;;;;5157167;27;20030;-73
2022/11/07 13:07:56;;;;;;;17.45;8.38;;;;;;;;;;5157019;27;20019;-72
2022/11/07 13:10:51;;;;;;;18.05;8.23;;;;;;;;;;5141652;27;20019;-74
2022/11/07 13:13:47;;;;;;;17.38;8.18;;;;;;;;;;5156674;27;20011;-73
2022/11/07 13:16:34;;;;;;;15.63;8.30;;;;;;;;;;5156385;27;20015;-74
2022/11/07 13:19:24;;;;;;;22.67;9.60;;;;;;;;;;5157505;27;20368;-74
2022/11/07 13:22:16;;;;;;;16.52;8.73;;;;;;;;;;5157127;27;20073;-74
2022/11/07 13:25:08;;;;;;;19.33;8.60;;;;;;;;;;5156946;27;20038;-72
2022/11/07 13:27:54;;;;;;;15.00;9.75;;;;;;;;;;5143142;27;20355;-74
2022/11/07 13:30:39;;;;;;;16.55;9.85;;;;;;;;;;5156821;27;20018;-72
2022/11/07 13:33:26;;;;;;;16.27;9.50;;;;;;;;;;5156260;27;20452;-73
2022/11/07 13:36:25;;;;;;;17.63;8.70;;;;;;;;;;5142434;27;20375;-73
2022/11/07 13:39:12;;;;;;;12.85;8.60;;;;;;;;;;5141707;27;20383;-74
2022/11/07 13:41:58;;;;;;;15.40;8.70;;;;;;;;;;5142018;27;20033;-72
2022/11/07 13:44:49;;;;;;;15.27;8.77;;;;;;;;;;5140902;27;20118;-71
2022/11/07 13:47:38;;;;;;;11.82;8.15;;;;;;;;;;5155383;27;20078;-72
2022/11/07 13:50:29;;;;;;;18.63;8.18;;;;;;;;;;5156675;27;20027;-72
2022/11/07 13:53:22;;;;;;;17.77;8.88;;;;;;;;;;5141228;27;20029;-72
2022/11/07 13:56:22;;;;;;;17.88;9.02;;;;;;;;;;5156158;27;20019;-72
2022/11/07 13:59:16;;;;;;;19.08;9.48;;;;;;;;;;5156056;27;20023;-73
2022/11/07 14:02:01;;;;;;;15.15;9.18;;;;;;;;;;5155985;27;20050;-72
2022/11/07 14:04:48;;;;;;;17.10;8.88;;;;;;;;;;5140811;27;20440;-72
2022/11/07 14:07:35;;;;;;;18.23;9.63;;;;;;;;;;5141935;27;20030;-73
2022/11/07 14:10:26;;;;;;;18.90;8.65;;;;;;;;;;5156707;27;20026;-74
2022/11/07 14:13:17;;;;;;;15.65;9.10;;;;;;;;;;5155699;27;20372;-73
2022/11/07 14:16:04;;;;;;;19.13;9.35;;;;;;;;;;5155904;27;20046;-76
2022/11/07 14:18:52;;;;;;;16.27;9.38;;;;;;;;;;5141393;27;20325;-75
2022/11/07 14:21:38;;;;;;;14.70;9.02;;;;;;;;;;5128297;27;20026;-72
2022/11/07 14:24:26;;;;;;;19.95;10.65;;;;;;;;;;5140402;27;20019;-73
2022/11/07 14:27:12;;;;;;;32.85;19.25;;;;;;;;;;5141143;27;20030;-72
2022/11/07 14:30:01;;;;;;;17.70;10.15;;;;;;;;;;5156225;27;20046;-72
2022/11/07 14:32:49;;;;;;;18.70;10.60;;;;;;;;;;5155863;27;20015;-73
2022/11/07 14:35:34;;;;;;;18.98;10.40;;;;;;;;;;5155669;27;20033;-73
2022/11/07 14:38:23;;;;;;;18.40;9.77;;;;;;;;;;5155381;27;20019;-72
2022/11/07 14:41:11;;;;;;;18.08;9.60;;;;;;;;;;5155274;27;20026;-73
2022/11/07 14:44:00;;;;;;;23.98;10.23;;;;;;;;;;5155957;27;20026;-72
2022/11/07 14:46:46;;;;;;;24.65;13.13;;;;;;;;;;5155263;27;20038;-74
2022/11/07 14:49:42;;;;;;;22.42;11.13;;;;;;;;;;5155088;27;20026;-73
2022/11/07 14:52:54;;;;;;;22.00;10.48;;;;;;;;;;5155342;27;20356;-72
2022/11/07 14:55:44;;;;;;;27.33;10.82;;;;;;;;;;5155803;27;20030;-74
2022/11/07 14:58:30;;;;;;;22.85;11.40;;;;;;;;;;5155718;27;20061;-73
2022/11/07 15:01:24;;;;;;;22.30;11.15;;;;;;;;;;5155018;27;20018;-72
2022/11/07 15:04:23;;;;;;;20.85;11.07;;;;;;;;;;5155344;27;20393;-71
2022/11/07 15:07:08;;;;;;;20.13;12.07;;;;;;;;;;5139283;27;20440;-71
2022/11/07 15:09:58;;;;;;;23.33;12.35;;;;;;;;;;5156092;27;20027;-73
2022/11/07 15:12:51;;;;;;;21.05;12.45;;;;;;;;;;5155307;27;20415;-75
2022/11/07 15:15:37;;;;;;;24.88;13.88;;;;;;;;;;5154060;27;20023;-74
2022/11/07 15:18:26;;;;;;;22.42;14.40;;;;;;;;;;5154893;27;20015;-74
2022/11/07 15:21:30;;;;;;;32.33;16.60;;;;;;;;;;5154243;27;20023;-74
2022/11/07 15:24:28;;;;;;;30.05;14.88;;;;;;;;;;5154888;27;20122;-72
2022/11/07 15:27:20;;;;;;;26.70;15.30;;;;;;;;;;5154119;27;20360;-74
2022/11/07 15:30:07;;;;;;;26.67;13.70;;;;;;;;;;5153999;27;20025;-73
2022/11/07 15:32:53;;;;;;;23.80;13.13;;;;;;;;;;5153209;27;20015;-72
2022/11/07 15:35:39;;;;;;;24.63;12.75;;;;;;;;;;5153563;27;20066;-75
2022/11/07 15:38:26;;;;;;;27.60;14.32;;;;;;;;;;5153972;27;20014;-75
2022/11/07 15:41:11;;;;;;;46.15;28.70;;;;;;;;;;5152855;27;20023;-75
2022/11/07 15:43:57;;;;;;;29.17;15.98;;;;;;;;;;5154299;27;20410;-73
2022/11/07 15:46:43;;;;;;;28.90;16.50;;;;;;;;;;5156821;27;20039;-74
2022/11/07 15:49:28;;;;;;;35.28;17.95;;;;;;;;;;5155137;27;20029;-74
2022/11/07 15:52:14;;;;;;;35.67;17.65;;;;;;;;;;5154082;27;20026;-74
2022/11/07 15:54:59;;;;;;;34.47;20.05;;;;;;;;;;5153997;27;20021;-73
2022/11/07 15:57:47;;;;;;;39.83;20.08;;;;;;;;;;5138186;27;20025;-73
2022/11/07 16:00:33;;;;;;;44.65;21.00;;;;;;;;;;5153382;27;20019;-73
2022/11/07 16:03:19;;;;;;;49.50;21.90;;;;;;;;;;5154044;27;20026;-75
2022/11/07 16:06:16;;;;;;;41.58;21.45;;;;;;;;;;5153990;27;20019;-73
2022/11/07 16:09:02;;;;;;;51.75;23.80;;;;;;;;;;5153401;27;20121;-74
2022/11/07 16:11:48;;;;;;;52.08;22.25;;;;;;;;;;5153773;27;20018;-73
2022/11/07 16:14:33;;;;;;;53.15;25.20;;;;;;;;;;5153798;27;20103;-75
2022/11/07 16:17:19;;;;;;;53.25;26.83;;;;;;;;;;5138091;27;20029;-74
2022/11/07 16:20:05;;;;;;;74.70;27.98;;;;;;;;;;5139246;27;20393;-74
2022/11/07 16:22:51;;;;;;;69.10;30.20;;;;;;;;;;5137923;27;20209;-74
2022/11/07 16:25:38;;;;;;;62.50;30.65;;;;;;;;;;5153757;27;20015;-75
2022/11/07 16:28:25;;;;;;;75.55;32.90;;;;;;;;;;5142272;27;20444;-74
2022/11/07 16:31:11;;;;;;;67.57;32.80;;;;;;;;;;5157258;27;20045;-74
2022/11/07 16:33:57;;;;;;;75.38;34.85;;;;;;;;;;5157440;27;20011;-75
2022/11/07 16:36:42;;;;;;;62.70;34.13;;;;;;;;;;5157322;27;20401;-74
2022/11/07 16:39:28;;;;;;;72.70;34.78;;;;;;;;;;5157529;27;20029;-74
2022/11/07 16:42:15;;;;;;;72.93;33.30;;;;;;;;;;5156666;27;20037;-74